»·PEaware :: N433EA KAVX-KSAN

N433EA :: KAVX-KSAN

FLIGHT INFORMATION

Flight Status: Arrived
Operator: Privately registered:
United States
More flights under this callsign
Pilot: Andrew T. (832)
Aircraft: CESSNA 210 CENTURION
(C210)
More flights by this aircraft type
Origin: KAVX Catalina
United States
Destination: KSAN San Diego Intl-Lindbergh
United States
More flights between these airports :: More routes between these airports
Route: SXC V208 OCN V23 MZB
File this flight plan on PilotEdge
Remarks: I-8
Altitude:
(Current/Filed)
7,000ft
Speed:
(Current/Filed)
160kts
Departed: 13-Jan-18 10:34 AM
Arrived: 13-Jan-18 11:23 AM
Distance/Time
Traveled:
74nm/0:49
Distance/Time
To Go:
Arrived

Flight Plot

Page will automatically refresh every two minutes.


Map Options




Map Legend


Flown Route
Filed Route
Departure Airport
Arrival Airport
Navaid (VOR, NDB)
Fix

Horizontal Profiles

Position Reports

Time Latitude Longitude Heading Altitude Ground
Speed
13-Jan-18 10:12 33.403292 -118.415954 45 1551ft 0kts
13-Jan-18 10:13 33.403292 -118.415954 45 1551ft 0kts
13-Jan-18 10:14 33.403292 -118.415954 45 1551ft 0kts
13-Jan-18 10:15 33.403292 -118.415954 45 1551ft 0kts
13-Jan-18 10:16 33.403292 -118.415954 45 1551ft 0kts
13-Jan-18 10:17 33.403292 -118.415954 45 1551ft 0kts
13-Jan-18 10:18 33.403292 -118.415954 45 1551ft 0kts
13-Jan-18 10:19 33.403292 -118.415954 45 1551ft 0kts
13-Jan-18 10:20 33.403292 -118.415954 45 1551ft 0kts
13-Jan-18 10:21 33.403292 -118.415954 45 1551ft 0kts
13-Jan-18 10:22 33.403292 -118.415954 45 1551ft 0kts
13-Jan-18 10:23 33.403292 -118.415954 45 1551ft 0kts
13-Jan-18 10:24 33.403292 -118.415954 45 1551ft 0kts
13-Jan-18 10:25 33.403292 -118.415954 45 1551ft 0kts
13-Jan-18 10:26 33.403292 -118.415954 45 1551ft 0kts
13-Jan-18 10:27 33.403292 -118.415954 45 1551ft 0kts
13-Jan-18 10:28 33.403292 -118.415954 45 1551ft 0kts
13-Jan-18 10:29 33.403292 -118.415954 45 1551ft 0kts
13-Jan-18 10:30 33.403292 -118.415954 45 1551ft 0kts
13-Jan-18 10:31 33.403292 -118.415954 45 1551ft 0kts
13-Jan-18 10:32 33.403292 -118.415954 45 1551ft 0kts
13-Jan-18 10:33 33.403393 -118.415810 59 1550ft 0kts
13-Jan-18 10:34 33.403397 -118.415801 61 1550ft 0kts
13-Jan-18 10:35 33.403397 -118.415801 61 1550ft 0kts
13-Jan-18 10:36 33.403398 -118.415800 57 1550ft 0kts
13-Jan-18 10:37 33.403398 -118.415800 57 1550ft 0kts
13-Jan-18 10:38 33.404700 -118.415550 246 1546ft 4kts
13-Jan-18 10:39 33.402368 -118.419492 231 1554ft 18kts
13-Jan-18 10:40 33.403578 -118.418191 56 1558ft 58kts
13-Jan-18 10:41 33.419547 -118.398836 14 3102ft 102kts
13-Jan-18 10:42 33.421978 -118.418642 189 4836ft 113kts
13-Jan-18 10:43 33.379324 -118.421018 178 5005ft 187kts
13-Jan-18 10:44 33.343818 -118.389152 67 4992ft 188kts
13-Jan-18 10:45 33.363876 -118.334846 115 4828ft 200kts
13-Jan-18 10:46 33.327664 -118.294608 101 5026ft 177kts
13-Jan-18 10:47 33.336521 -118.239670 77 5002ft 184kts
13-Jan-18 10:48 33.341200 -118.180832 97 5053ft 179kts
13-Jan-18 10:49 33.334370 -118.122604 92 5054ft 175kts
13-Jan-18 10:50 33.328884 -118.064480 95 5000ft 175kts
13-Jan-18 10:51 33.320999 -118.008125 99 5001ft 175kts
13-Jan-18 10:52 33.312861 -117.950901 96 5001ft 174kts
13-Jan-18 10:53 33.305825 -117.893763 95 5001ft 174kts
13-Jan-18 10:54 33.298568 -117.836318 97 5000ft 174kts
13-Jan-18 10:55 33.290156 -117.779408 97 4991ft 175kts
13-Jan-18 10:56 33.281606 -117.722226 98 4990ft 174kts
13-Jan-18 10:57 33.272401 -117.665751 98 4990ft 172kts
13-Jan-18 10:58 33.263256 -117.609712 98 4990ft 171kts
13-Jan-18 10:59 33.254643 -117.553776 96 4990ft 171kts
13-Jan-18 11:00 33.248718 -117.497366 93 4990ft 171kts
13-Jan-18 11:01 33.243266 -117.441088 94 4990ft 171kts
13-Jan-18 11:02 33.204646 -117.410085 152 4990ft 178kts
13-Jan-18 11:03 33.160401 -117.384207 155 4988ft 178kts
13-Jan-18 11:04 33.114302 -117.363092 158 4989ft 179kts
13-Jan-18 11:05 33.067485 -117.346205 158 4991ft 179kts
13-Jan-18 11:06 33.020662 -117.325948 157 4991ft 179kts
13-Jan-18 11:07 32.974056 -117.305644 157 4991ft 179kts
13-Jan-18 11:08 32.926936 -117.287585 160 4991ft 179kts
13-Jan-18 11:09 32.881189 -117.266740 155 4990ft 178kts
13-Jan-18 11:10 32.836083 -117.243364 131 4973ft 176kts
13-Jan-18 11:11 32.821808 -117.189546 102 4990ft 172kts
13-Jan-18 11:12 32.809533 -117.134850 102 4990ft 172kts
13-Jan-18 11:13 32.797461 -117.081002 102 4990ft 172kts
13-Jan-18 11:14 32.785265 -117.026553 102 4990ft 172kts
13-Jan-18 11:15 32.772999 -116.971749 102 4990ft 172kts
13-Jan-18 11:16 32.760734 -116.916900 102 4990ft 172kts
13-Jan-18 11:17 32.748476 -116.862036 102 4990ft 172kts
13-Jan-18 11:18 32.736256 -116.807304 102 4990ft 171kts
13-Jan-18 11:19 32.705561 -116.781270 223 4978ft 182kts
13-Jan-18 11:20 32.687610 -116.830793 250 4987ft 149kts
13-Jan-18 11:21 32.672894 -116.874276 249 4487ft 144kts
13-Jan-18 11:22 32.669471 -116.922067 278 3926ft 160kts
13-Jan-18 11:23 32.678423 -116.967345 286 4025ft 152kts
13-Jan-18 11:24 32.690497 -117.017053 289 3954ft 160kts
13-Jan-18 11:25 32.701585 -117.064452 290 2688ft 129kts
13-Jan-18 11:26 32.712306 -117.102065 287 1406ft 122kts
13-Jan-18 11:27 32.721366 -117.140191 287 678ft 120kts
13-Jan-18 11:28 32.729847 -117.174538 289 156ft 91kts
13-Jan-18 11:29 32.734182 -117.188051 2 17ft 0kts
13-Jan-18 11:30 32.734182 -117.188051 2 17ft 0kts
13-Jan-18 11:31 32.735254 -117.188980 10 17ft 0kts
13-Jan-18 11:32 32.735254 -117.188980 10 17ft 0kts
13-Jan-18 11:33 32.735254 -117.188980 10 17ft 0kts

Navigation Log

Ident Type
1. KAVX Airport
2. SXC Navaid
3. AVOLS Fix
4. PACIF Fix
5. HUBRD Fix
6. OCN Navaid
7. HURSI Fix
8. CARIF Fix
9. MZB Navaid
10. KSAN Airport